Mobile Regional Airport
KMOB : rendu visible

Aérodrome :











RETROUVEZ-NOUS SUR...

 
LOGIN :

S'inscrire | Disclaimer

   EN    FR    IT 

 









Légende :    VFR   VFR Marginal   IFR   IFR Intensif   IFR Très Intensif
Visi : 
Plafond : 
>= 8 km
>= 3000ft
5 à 8 km
1000 à 3000 ft
1500m à 5 km
500 à 1000 ft
800 à 1500m
200 à 500 ft
< 800m
< 200 ft
Symboles :   Orages  Brouillard  Fortes neiges  Fortes précipitations  Vent > 20 kt






- Altitude de l'aérodrome : 219 ft
- Code IATA : MOB


KMOB - Mobile Regional

DERNIER METAR :
  • 311956Z 34008KT 10SM FEW120 SCT250 32/15 A3006 RMK AO2 SLP175 T03220150

METARs EXPIRÉS :
  • 311856Z 34007KT 10SM FEW120 SCT250 31/15 A3007 RMK AO2 SLP179 T03110150
  • 311756Z 34010KT 10SM FEW030 FEW250 31/16 A3009 RMK AO2 SLP185 T03060156 10306 20217 58007

TAF KMOB
Valide du 31 à 18h jusqu'au 01 à 18h UTC


311730Z 3118/0118 36008KT P6SM SKC
FM010200 05006KT P6SM FEW250
FM011500 09008KT P6SM FEW050 SCT250
FIR KZHU / Amérique du Nord



MET'MAP, la Météo Aéronautique d'un coup d'oeil ! - Copyright ORBIFLY Décembre 2007 - Disclaimer

ORBIFLY MET'MAP TEAM :

Programmation & Développement : Alexandra Zaïnal
Sur une idée originale de : Baudouin d'Aumeries
Assistance à la programmation : Marc-Olivier Méhu
Soutien technique & logistique : Manuel Goepfert

Contact : metmap@orbifly.com




SOURCES & CREDITS :

   NOAA       Earth
Advisory